Time;durP1;ratioP1;P1;durP2;ratioP2;P2;SDS_P1;SDS_P2;PMS_P1;PMS_P2;Temp;Humidity;BMP_temperature;BMP_pressure;BME280_temperature;BME280_humidity;BME280_pressure;Samples;Min_cycle;Max_cycle;Signal;HPM_P1;HPM_P2
2022/09/04 00:01:25;;;;;;;7.80;4.47;;;10.30;85.60;;;;;;5079402;28;20043;-86
2022/09/04 00:04:08;;;;;;;7.05;3.75;;;10.30;85.60;;;;;;5061709;28;20051;-85
2022/09/04 00:06:41;;;;;;;5.95;3.78;;;10.30;85.80;;;;;;5091415;28;20028;-86
2022/09/04 00:09:15;;;;;;;5.57;3.70;;;10.30;85.80;;;;;;5094169;28;20082;-86
2022/09/04 00:12:03;;;;;;;7.00;4.03;;;10.30;85.90;;;;;;5083639;28;20039;-86
2022/09/04 00:14:38;;;;;;;7.13;4.07;;;10.30;85.90;;;;;;5104022;28;20017;-86
2022/09/04 00:17:43;;;;;;;6.95;3.90;;;10.20;85.90;;;;;;5087007;28;20024;-86
2022/09/04 00:20:37;;;;;;;7.75;3.85;;;10.20;86.10;;;;;;5069603;28;20047;-86
2022/09/04 00:23:38;;;;;;;10.15;3.78;;;10.20;86.30;;;;;;5079669;28;20351;-88
2022/09/04 00:26:18;;;;;;;8.43;4.25;;;10.20;86.30;;;;;;5071929;28;20021;-85
2022/09/04 00:28:57;;;;;;;6.72;3.53;;;10.10;86.40;;;;;;5076331;28;20103;-86
2022/09/04 00:31:32;;;;;;;4.40;3.30;;;10.10;86.80;;;;;;5077309;28;20452;-86
2022/09/04 00:34:25;;;;;;;6.30;4.50;;;10.10;86.90;;;;;;5076652;28;20036;-86
2022/09/04 00:36:54;;;;;;;7.40;3.53;;;10.00;87.10;;;;;;5078131;28;20584;-85
2022/09/04 00:39:30;;;;;;;6.18;4.25;;;10.00;87.20;;;;;;5073256;28;20070;-86
2022/09/04 00:42:20;;;;;;;5.38;3.78;;;10.00;87.50;;;;;;5076134;28;20021;-86
2022/09/04 00:45:07;;;;;;;6.93;4.25;;;10.00;87.70;;;;;;5075943;28;20057;-86
2022/09/04 00:47:38;;;;;;;6.93;4.03;;;9.90;87.90;;;;;;5076634;28;20026;-84
2022/09/04 00:50:15;;;;;;;5.93;3.88;;;9.90;88.20;;;;;;5073812;28;20028;-85
2022/09/04 00:53:12;;;;;;;7.13;5.07;;;9.90;88.30;;;;;;5074582;28;20028;-87
2022/09/04 00:56:08;;;;;;;12.70;7.47;;;9.90;88.50;;;;;;5047738;28;20119;-85
2022/09/04 00:58:55;;;;;;;7.67;4.90;;;9.80;88.80;;;;;;5075442;28;20040;-87
2022/09/04 01:01:23;;;;;;;7.30;4.03;;;9.80;89.00;;;;;;5074291;28;20298;-86
2022/09/04 01:04:10;;;;;;;11.18;5.88;;;9.70;89.00;;;;;;5067586;28;20083;-87
2022/09/04 01:07:05;;;;;;;11.65;6.40;;;9.70;89.40;;;;;;5065546;28;20031;-88
2022/09/04 01:09:54;;;;;;;11.88;6.03;;;9.70;89.70;;;;;;5077092;28;20033;-88
2022/09/04 01:13:00;;;;;;;17.30;8.07;;;9.70;89.80;;;;;;5075993;28;20525;-87
2022/09/04 01:15:57;;;;;;;9.35;6.47;;;9.70;89.80;;;;;;4996689;28;20041;-86
2022/09/04 01:18:31;;;;;;;20.17;10.73;;;9.60;90.00;;;;;;4980455;28;20500;-85
2022/09/04 01:20:59;;;;;;;14.85;7.38;;;9.60;90.00;;;;;;4994339;28;20038;-86
2022/09/04 01:23:50;;;;;;;17.10;8.18;;;9.60;90.10;;;;;;4998649;28;20092;-87
2022/09/04 01:26:30;;;;;;;13.80;6.82;;;9.60;90.60;;;;;;5024449;28;20041;-86
2022/09/04 01:29:12;;;;;;;10.95;6.47;;;9.50;90.40;;;;;;4995892;28;20038;-86
2022/09/04 01:31:59;;;;;;;17.60;7.82;;;9.50;90.50;;;;;;4994884;28;20476;-86
2022/09/04 01:34:51;;;;;;;23.05;11.23;;;9.50;90.60;;;;;;4993768;28;20539;-86
2022/09/04 01:37:42;;;;;;;19.85;9.52;;;9.50;90.60;;;;;;4993448;28;20037;-87
2022/09/04 01:40:40;;;;;;;23.58;11.02;;;9.40;90.70;;;;;;4977290;28;20101;-86
2022/09/04 01:43:12;;;;;;;23.15;11.07;;;9.40;90.80;;;;;;4983652;28;20038;-87
2022/09/04 01:45:51;;;;;;;19.02;10.85;;;9.40;90.90;;;;;;4988774;28;20031;-86
2022/09/04 01:48:25;;;;;;;16.02;9.75;;;9.40;91.00;;;;;;4994195;28;20108;-87
2022/09/04 01:50:57;;;;;;;13.43;7.75;;;9.40;91.10;;;;;;5074440;28;20023;-86
2022/09/04 01:53:28;;;;;;;10.48;5.68;;;9.40;91.10;;;;;;5085830;28;20025;-88
2022/09/04 01:55:59;;;;;;;9.85;4.90;;;9.40;91.20;;;;;;5091861;28;20028;-87
2022/09/04 01:58:45;;;;;;;13.10;4.85;;;9.40;91.20;;;;;;5089907;28;20031;-87
2022/09/04 02:01:37;;;;;;;8.40;5.95;;;9.30;91.30;;;;;;5096305;28;20017;-86
2022/09/04 02:04:30;;;;;;;13.32;5.80;;;9.30;91.30;;;;;;5083641;28;20385;-88
2022/09/04 02:07:13;;;;;;;9.45;4.40;;;9.30;91.40;;;;;;5076755;28;20023;-85
2022/09/04 02:09:48;;;;;;;9.05;4.72;;;;;;;;;;5076261;28;20081;-87
2022/09/04 02:12:29;;;;;;;13.63;4.50;;;;;;;;;;5073270;28;20508;-88
2022/09/04 02:15:08;;;;;;;9.85;5.22;;;;;;;;;;5079067;28;20107;-86
2022/09/04 02:17:43;;;;;;;7.90;4.82;;;;;;;;;;5095422;28;20029;-87
2022/09/04 02:20:18;;;;;;;8.95;4.55;;;;;;;;;;5076588;28;20028;-87
2022/09/04 02:22:53;;;;;;;7.07;4.82;;;9.20;91.50;;;;;;5075180;28;20029;-88
2022/09/04 02:25:43;;;;;;;6.43;4.38;;;9.10;91.80;;;;;;5074267;28;20433;-86
2022/09/04 02:28:24;;;;;;;5.93;4.03;;;9.10;91.90;;;;;;5058560;28;20059;-89
2022/09/04 02:31:27;;;;;;;6.55;4.72;;;9.10;92.00;;;;;;5068738;28;20107;-88
2022/09/04 02:34:19;;;;;;;7.72;4.68;;;9.00;92.10;;;;;;5074740;28;20516;-88
2022/09/04 02:36:48;;;;;;;8.48;4.07;;;9.00;92.10;;;;;;5060719;28;20023;-86
2022/09/04 02:39:49;;;;;;;5.13;3.80;;;9.00;92.10;;;;;;5082993;28;20098;-86
2022/09/04 02:42:40;;;;;;;8.13;4.32;;;9.00;92.20;;;;;;5075360;28;20032;-88
2022/09/04 02:45:28;;;;;;;5.43;4.38;;;9.00;92.20;;;;;;5072538;28;20091;-87
2022/09/04 02:48:21;;;;;;;5.75;3.90;;;9.00;92.30;;;;;;5072899;28;20101;-85
2022/09/04 02:51:12;;;;;;;6.60;4.53;;;9.00;92.40;;;;;;5071950;28;20024;-84
2022/09/04 02:53:50;;;;;;;8.48;3.78;;;9.00;92.50;;;;;;5063577;28;20009;-88
2022/09/04 02:56:48;;;;;;;;;;;9.00;92.50;;;;;;5078411;28;20027;-85
2022/09/04 02:59:32;;;;;;;6.07;4.40;;;8.90;92.20;;;;;;5045685;28;19912;-85
2022/09/04 03:02:04;;;;;;;7.93;4.85;;;8.90;92.60;;;;;;5069093;28;20084;-85
2022/09/04 03:04:39;;;;;;;7.00;4.68;;;8.90;92.70;;;;;;5071189;28;20477;-86
2022/09/04 03:07:24;;;;;;;8.60;4.50;;;9.00;92.80;;;;;;5073101;28;20048;-87
2022/09/04 03:10:11;;;;;;;5.78;4.07;;;9.00;92.80;;;;;;5074271;28;20117;-88
2022/09/04 03:12:49;;;;;;;6.03;4.75;;;9.10;92.80;;;;;;5074409;28;20047;-90
2022/09/04 03:15:44;;;;;;;5.50;4.35;;;9.10;92.80;;;;;;5076921;28;20111;-89
2022/09/04 03:18:23;;;;;;;6.05;4.85;;;9.10;92.70;;;;;;5080351;28;20021;-87
2022/09/04 03:21:15;;;;;;;7.90;5.05;;;9.10;92.70;;;;;;5075655;28;20074;-88
2022/09/04 03:23:58;;;;;;;6.22;4.28;;;9.20;92.70;;;;;;5075410;28;20024;-87
2022/09/04 03:26:31;;;;;;;9.32;5.00;;;9.30;92.60;;;;;;5074575;28;20021;-89
2022/09/04 03:29:09;;;;;;;9.23;5.07;;;9.40;92.50;;;;;;5076053;28;20084;-89
2022/09/04 03:32:03;;;;;;;7.05;4.70;;;9.50;92.30;;;;;;5067004;28;20103;-88
2022/09/04 03:34:55;;;;;;;9.00;4.70;;;9.60;92.30;;;;;;5085692;28;20051;-89
2022/09/04 03:37:43;;;;;;;6.90;4.88;;;9.60;92.10;;;;;;5084241;28;20099;-85
2022/09/04 03:40:18;;;;;;;6.57;5.18;;;9.70;91.90;;;;;;5091109;28;20017;-85
2022/09/04 03:42:46;;;;;;;8.93;5.00;;;9.70;91.80;;;;;;5079923;28;20017;-85
2022/09/04 03:45:31;;;;;;;9.32;5.13;;;9.80;91.60;;;;;;5078798;28;20371;-84
2022/09/04 03:48:09;;;;;;;7.28;5.43;;;9.80;91.50;;;;;;5075467;28;20085;-87
2022/09/04 03:50:49;;;;;;;7.88;5.40;;;9.80;91.40;;;;;;5074363;28;20028;-86
2022/09/04 03:54:12;;;;;;;6.68;5.13;;;9.90;91.30;;;;;;5079764;28;20033;-85
2022/09/04 03:57:12;;;;;;;7.40;5.00;;;9.90;91.20;;;;;;5016685;28;20814;-86
2022/09/04 03:59:52;;;;;;;11.98;6.25;;;9.90;91.20;;;;;;4999034;28;20029;-85
2022/09/04 04:02:36;;;;;;;6.18;4.45;;;10.00;91.10;;;;;;5072228;28;20048;-84
2022/09/04 04:05:25;;;;;;;8.80;5.60;;;10.10;91.10;;;;;;5077115;28;20024;-86
2022/09/04 04:08:13;;;;;;;7.53;4.85;;;10.10;91.00;;;;;;5062951;28;20025;-85
2022/09/04 04:10:47;;;;;;;7.80;4.43;;;10.20;90.90;;;;;;5076724;28;20116;-87
2022/09/04 04:13:25;;;;;;;11.07;4.80;;;10.30;90.70;;;;;;5074560;28;20024;-86
2022/09/04 04:16:13;;;;;;;8.63;5.50;;;10.40;90.60;;;;;;5076271;28;20017;-85
2022/09/04 04:19:16;;;;;;;7.10;4.35;;;10.50;90.70;;;;;;5084726;28;20080;-85
2022/09/04 04:22:07;;;;;;;6.40;4.53;;;10.50;90.60;;;;;;5078386;28;20405;-86
2022/09/04 04:24:56;;;;;;;5.25;4.60;;;10.80;91.00;;;;;;5075863;28;20024;-84
2022/09/04 04:27:37;;;;;;;6.65;4.40;;;11.30;89.30;;;;;;5047619;28;20028;-84
2022/09/04 04:30:13;;;;;;;6.82;4.97;;;12.00;85.00;;;;;;5088736;28;20028;-85
2022/09/04 04:33:14;;;;;;;5.72;4.35;;;12.60;81.10;;;;;;5085295;28;20043;-84
2022/09/04 04:36:11;;;;;;;6.97;4.40;;;13.20;79.00;;;;;;5075340;28;20060;-86
2022/09/04 04:38:54;;;;;;;6.03;3.92;;;13.90;76.20;;;;;;5062577;28;20046;-84
2022/09/04 04:42:05;;;;;;;6.60;4.07;;;14.40;72.70;;;;;;5078384;28;20035;-84
2022/09/04 04:47:40;;;;;;;5.07;4.18;;;15.30;69.20;;;;;;5089464;28;20050;-84
2022/09/04 04:50:21;;;;;;;5.25;4.07;;;15.80;66.00;;;;;;5075369;28;20032;-83
2022/09/04 04:53:02;;;;;;;4.22;3.30;;;15.90;64.30;;;;;;5075028;28;20024;-82
2022/09/04 04:55:52;;;;;;;5.15;3.67;;;15.90;63.50;;;;;;5073770;28;20023;-83
2022/09/04 04:58:42;;;;;;;5.38;4.00;;;15.40;63.40;;;;;;5071573;28;20025;-84
2022/09/04 05:01:08;;;;;;;7.15;4.60;;;14.50;64.70;;;;;;5062727;28;20028;-85
2022/09/04 05:04:19;;;;;;;5.20;4.22;;;13.70;67.80;;;;;;5074405;28;20020;-83
2022/09/04 05:06:55;;;;;;;7.55;4.00;;;13.00;70.40;;;;;;5037014;28;20036;-85
2022/09/04 05:09:21;;;;;;;5.72;3.72;;;12.40;71.60;;;;;;5051777;28;20051;-85
2022/09/04 05:12:19;;;;;;;5.53;3.55;;;12.10;73.10;;;;;;5051920;28;20022;-84
2022/09/04 05:14:54;;;;;;;4.82;2.97;;;12.50;74.00;;;;;;5001493;28;20109;-84
2022/09/04 05:17:46;;;;;;;4.55;2.97;;;13.60;70.60;;;;;;5053120;28;20062;-83
2022/09/04 05:20:30;;;;;;;4.95;2.85;;;14.40;66.70;;;;;;5059217;28;20025;-83
2022/09/04 05:23:17;;;;;;;5.22;2.90;;;14.20;64.80;;;;;;5051725;28;20090;-85
2022/09/04 05:26:22;;;;;;;4.20;2.72;;;13.40;66.30;;;;;;5069578;28;20039;-85
2022/09/04 05:29:12;;;;;;;3.75;2.75;;;12.80;68.20;;;;;;4984145;28;20051;-84
2022/09/04 05:31:52;;;;;;;3.65;2.63;;;12.30;70.00;;;;;;5046405;28;20020;-85
2022/09/04 05:34:33;;;;;;;7.03;3.13;;;12.00;70.40;;;;;;5047966;28;20643;-84
2022/09/04 05:37:15;;;;;;;4.07;2.85;;;11.70;71.40;;;;;;5057839;28;20123;-86
2022/09/04 05:40:03;;;;;;;4.28;3.03;;;11.60;72.30;;;;;;5037119;28;20025;-86
2022/09/04 05:43:03;;;;;;;4.05;2.45;;;11.50;72.70;;;;;;5057997;28;20033;-85
2022/09/04 05:45:42;;;;;;;3.67;3.05;;;11.50;73.10;;;;;;5073518;28;20031;-85
2022/09/04 05:48:29;;;;;;;6.95;3.08;;;11.50;73.40;;;;;;5073670;28;20120;-86
2022/09/04 05:51:19;;;;;;;3.50;2.47;;;11.40;73.60;;;;;;5062419;28;20024;-86
2022/09/04 05:54:23;;;;;;;4.97;3.22;;;11.40;73.30;;;;;;5067903;28;20020;-87
2022/09/04 05:57:09;;;;;;;2.95;2.05;;;11.50;73.30;;;;;;5070949;28;20052;-87
2022/09/04 05:59:41;;;;;;;4.82;2.45;;;12.20;73.30;;;;;;5073102;28;20028;-85
2022/09/04 06:02:30;;;;;;;6.30;2.63;;;14.40;69.50;;;;;;5076301;28;20021;-86
2022/09/04 06:05:02;;;;;;;3.58;2.10;;;;;;;;;;5062455;28;20032;-85
2022/09/04 06:07:49;;;;;;;3.20;2.38;;;16.70;62.20;;;;;;5078343;28;20107;-86
2022/09/04 06:10:23;;;;;;;3.17;2.53;;;19.60;53.70;;;;;;5075619;28;20172;-87
2022/09/04 06:13:18;;;;;;;5.97;2.95;;;21.00;50.50;;;;;;5074125;28;20116;-85
2022/09/04 06:16:02;;;;;;;3.38;2.38;;;22.50;48.60;;;;;;5082719;28;20059;-86
2022/09/04 06:18:48;;;;;;;3.70;2.67;;;23.70;45.00;;;;;;5085569;28;20043;-84
2022/09/04 06:21:51;;;;;;;3.05;2.50;;;24.30;43.50;;;;;;5089332;28;20019;-89
2022/09/04 06:24:55;;;;;;;3.67;1.90;;;24.60;42.80;;;;;;5089377;28;20024;-88
2022/09/04 06:27:23;;;;;;;2.58;1.92;;;25.10;41.60;;;;;;5054597;28;20044;-86
2022/09/04 06:30:06;;;;;;;2.58;2.00;;;25.20;40.60;;;;;;5074642;28;20130;-85
2022/09/04 06:32:41;;;;;;;2.78;1.92;;;24.80;39.50;;;;;;5074029;28;20090;-86
2022/09/04 06:35:18;;;;;;;5.07;2.72;;;24.50;40.20;;;;;;5069096;28;20048;-85
2022/09/04 06:37:52;;;;;;;3.80;2.05;;;24.40;40.20;;;;;;5071765;28;20052;-86
2022/09/04 06:40:39;;;;;;;3.42;2.00;;;25.30;41.00;;;;;;5067345;28;20086;-87
2022/09/04 06:43:30;;;;;;;5.88;2.80;;;25.40;39.70;;;;;;5071056;28;20023;-88
2022/09/04 06:46:14;;;;;;;3.90;1.88;;;26.10;38.50;;;;;;5065291;28;20090;-86
2022/09/04 06:49:02;;;;;;;2.30;2.00;;;26.50;37.90;;;;;;5068795;28;20401;-87
2022/09/04 06:51:56;;;;;;;4.82;1.90;;;26.70;37.40;;;;;;5069529;28;20070;-86
2022/09/04 06:55:01;;;;;;;4.28;1.88;;;26.80;37.30;;;;;;5073288;28;20024;-87
2022/09/04 06:57:59;;;;;;;3.75;1.77;;;27.00;37.30;;;;;;5055178;28;20037;-86
2022/09/04 07:00:31;;;;;;;2.83;1.70;;;27.20;36.20;;;;;;5087438;28;20482;-86
2022/09/04 07:03:23;;;;;;;3.28;2.00;;;27.40;35.90;;;;;;5074717;28;20158;-87
2022/09/04 07:06:11;;;;;;;4.47;1.85;;;27.70;36.10;;;;;;5074541;28;20050;-88
2022/09/04 07:08:52;;;;;;;2.10;1.17;;;28.40;35.30;;;;;;5051414;28;20028;-86
2022/09/04 07:11:46;;;;;;;2.38;1.52;;;28.80;34.00;;;;;;5081308;28;20013;-86
2022/09/04 07:14:46;;;;;;;2.00;1.30;;;29.00;33.80;;;;;;5093947;28;20016;-88
2022/09/04 07:17:36;;;;;;;6.07;1.73;;;28.80;33.50;;;;;;5081215;28;20017;-87
2022/09/04 07:20:02;;;;;;;3.65;1.42;;;28.70;33.70;;;;;;5073814;28;20504;-88
2022/09/04 07:22:58;;;;;;;3.92;1.67;;;29.20;32.80;;;;;;5086806;28;20020;-89
2022/09/04 07:25:35;;;;;;;2.13;1.45;;;29.20;33.00;;;;;;5078999;28;20021;-88
2022/09/04 07:28:29;;;;;;;2.97;1.45;;;29.70;32.20;;;;;;5080380;28;20024;-91
2022/09/04 07:31:02;;;;;;;4.22;0.93;;;30.10;32.00;;;;;;5088976;28;20036;-89
2022/09/04 07:33:55;;;;;;;2.30;1.10;;;30.10;30.90;;;;;;5088640;28;20050;-91
2022/09/04 07:36:48;;;;;;;1.05;0.85;;;30.40;31.20;;;;;;5096452;28;20119;-87
2022/09/04 07:39:23;;;;;;;3.30;1.38;;;30.40;31.20;;;;;;5095441;28;20520;-89
2022/09/04 07:41:57;;;;;;;2.13;1.17;;;;;;;;;;5081277;28;20024;-92
2022/09/04 07:44:30;;;;;;;2.42;0.80;;;;;;;;;;5084623;28;20051;-90
2022/09/04 07:47:17;;;;;;;3.47;1.02;;;;;;;;;;5071578;28;20441;-93
2022/09/04 07:49:43;;;;;;;;;;;;;;;;;;5087751;28;20520;-91
2022/09/04 07:52:17;;;;;;;1.48;0.93;;;;;;;;;;5056798;28;20003;-86
2022/09/04 07:54:55;;;;;;;1.73;1.08;;;;;;;;;;5054177;28;20067;-85
2022/09/04 07:57:40;;;;;;;1.38;1.02;;;;;;;;;;5056067;28;20037;-89
2022/09/04 08:00:25;;;;;;;1.67;1.00;;;;;;;;;;5056084;28;20461;-86
2022/09/04 08:02:55;;;;;;;3.45;0.95;;;;;;;;;;5044189;28;20033;-88
2022/09/04 08:05:23;;;;;;;2.20;0.90;;;;;;;;;;5053591;28;20060;-89
2022/09/04 08:08:05;;;;;;;1.30;1.10;;;;;;;;;;5039381;28;20041;-86
2022/09/04 08:10:59;;;;;;;4.88;2.22;;;;;;;;;;5048977;28;20032;-88
2022/09/04 08:13:44;;;;;;;3.45;1.27;;;;;;;;;;5056642;28;20057;-89
2022/09/04 08:16:29;;;;;;;1.70;0.90;;;30.80;30.70;;;;;;5042045;28;20021;-94
2022/09/04 08:19:19;;;;;;;4.93;1.33;;;33.20;28.30;;;;;;5060610;28;20045;-90
2022/09/04 08:21:47;;;;;;;3.33;0.70;;;33.20;28.00;;;;;;5059048;28;20025;-92
2022/09/04 08:24:21;;;;;;;1.42;0.80;;;33.10;27.90;;;;;;5081701;28;20041;-90
2022/09/04 08:26:50;;;;;;;1.20;0.73;;;33.30;27.80;;;;;;5092303;28;20028;-90
2022/09/04 08:29:51;;;;;;;3.25;1.27;;;32.60;27.70;;;;;;5091552;28;20021;-89
2022/09/04 08:32:35;;;;;;;2.63;1.00;;;31.00;28.80;;;;;;5079380;28;20070;-90
2022/09/04 08:35:20;;;;;;;5.13;1.38;;;30.50;29.40;;;;;;5080078;28;20143;-89
2022/09/04 08:37:55;;;;;;;2.25;1.30;;;30.50;29.10;;;;;;5089325;28;20025;-91
2022/09/04 08:40:49;;;;;;;1.48;1.33;;;29.00;29.70;;;;;;5082290;28;20040;-90
2022/09/04 08:43:40;;;;;;;1.35;1.05;;;27.90;30.80;;;;;;5080300;28;20028;-90
2022/09/04 08:46:47;;;;;;;2.78;1.10;;;28.40;31.10;;;;;;5081889;28;20556;-91
2022/09/04 08:49:28;;;;;;;3.05;1.42;;;29.30;30.50;;;;;;5077251;28;20032;-91
2022/09/04 08:52:35;;;;;;;1.27;1.02;;;28.40;29.90;;;;;;5079543;28;20020;-91
2022/09/04 08:55:13;;;;;;;2.03;1.02;;;28.60;30.80;;;;;;5054072;28;20052;-88
2022/09/04 08:58:07;;;;;;;1.35;0.95;;;29.40;29.80;;;;;;5076844;28;20067;-88
2022/09/04 09:01:02;;;;;;;2.10;1.00;;;28.60;29.80;;;;;;5086548;28;20013;-89
2022/09/04 09:04:11;;;;;;;4.25;1.20;;;27.80;30.50;;;;;;5070884;28;20028;-89
2022/09/04 09:07:12;;;;;;;3.42;1.20;;;26.90;31.30;;;;;;5072558;28;20017;-88
2022/09/04 09:09:56;;;;;;;1.05;0.70;;;25.50;32.40;;;;;;5077841;28;20056;-88
2022/09/04 09:12:55;;;;;;;2.50;0.85;;;23.90;33.10;;;;;;5099866;28;20024;-88
2022/09/04 09:15:43;;;;;;;2.17;0.82;;;22.40;35.20;;;;;;5086862;28;20020;-88
2022/09/04 09:18:30;;;;;;;1.15;0.73;;;21.30;36.70;;;;;;5080005;28;20055;-89
2022/09/04 09:21:06;;;;;;;1.92;1.02;;;21.30;37.70;;;;;;5102304;28;20023;-89
2022/09/04 09:23:44;;;;;;;1.60;1.02;;;21.20;37.40;;;;;;5102742;28;20039;-91
2022/09/04 09:26:22;;;;;;;1.30;1.13;;;20.30;38.60;;;;;;5096618;28;20027;-89
2022/09/04 09:29:19;;;;;;;1.80;1.20;;;19.60;40.40;;;;;;5094124;28;20016;-89
2022/09/04 09:32:19;;;;;;;1.52;0.98;;;21.10;40.30;;;;;;5079795;28;20029;-90
2022/09/04 09:35:11;;;;;;;1.23;0.70;;;22.80;37.10;;;;;;5084363;28;20052;-90
2022/09/04 09:38:05;;;;;;;3.13;1.20;;;22.40;36.50;;;;;;5074817;28;20032;-90
2022/09/04 09:41:09;;;;;;;3.63;1.95;;;22.50;36.70;;;;;;5078918;28;20032;-90
2022/09/04 09:43:40;;;;;;;1.65;1.00;;;24.00;36.50;;;;;;5078363;28;20032;-87
2022/09/04 09:46:25;;;;;;;1.42;0.90;;;26.20;33.80;;;;;;5090030;28;20058;-89
2022/09/04 09:49:22;;;;;;;4.68;3.30;;;27.90;32.20;;;;;;5069771;28;20024;-92
2022/09/04 09:52:21;;;;;;;1.42;0.82;;;28.50;31.00;;;;;;5094395;28;20158;-91
2022/09/04 09:55:25;;;;;;;1.67;0.88;;;29.00;30.50;;;;;;5023826;28;20036;-92
2022/09/04 09:58:33;;;;;;;0.90;0.80;;;28.60;30.00;;;;;;5022679;28;20038;-93
2022/09/04 10:01:24;;;;;;;4.90;1.25;;;27.40;30.60;;;;;;4994540;28;20037;-89
2022/09/04 10:04:40;;;;;;;1.35;0.95;;;25.70;31.30;;;;;;5022946;28;20543;-93
2022/09/04 10:07:44;;;;;;;2.25;1.30;;;23.70;32.70;;;;;;5006972;28;20133;-91
2022/09/04 10:10:45;;;;;;;1.08;0.93;;;21.70;35.40;;;;;;5017644;28;20059;-91
2022/09/04 10:13:35;;;;;;;2.00;1.00;;;21.20;37.30;;;;;;5014265;28;20029;-90
2022/09/04 10:16:33;;;;;;;1.48;1.17;;;21.30;36.30;;;;;;5024484;28;20034;-91
2022/09/04 10:19:07;;;;;;;4.20;1.55;;;21.60;36.60;;;;;;4947439;29;20063;-91
2022/09/04 10:22:00;;;;;;;1.08;0.85;;;22.90;34.90;;;;;;4944187;29;20026;-91
2022/09/04 10:25:15;;;;;;;2.53;1.00;;;23.30;33.50;;;;;;4962036;29;20040;-89
2022/09/04 10:28:25;;;;;;;1.25;0.73;;;22.60;34.10;;;;;;4876324;29;20033;-92
2022/09/04 10:31:15;;;;;;;5.32;1.45;;;21.60;35.00;;;;;;4903321;29;20073;-91
2022/09/04 10:33:44;;;;;;;1.63;1.20;;;20.50;36.80;;;;;;4910787;29;20021;-90
2022/09/04 10:36:45;;;;;;;2.40;1.25;;;19.30;38.40;;;;;;4929610;29;20131;-90
2022/09/04 10:42:22;;;;;;;1.80;1.10;;;18.10;40.50;;;;;;4949373;29;20141;-85
2022/09/04 10:45:15;;;;;;;2.95;0.98;;;17.90;40.60;;;;;;4935703;29;20047;-89
2022/09/04 10:47:54;;;;;;;1.02;0.90;;;17.90;41.00;;;;;;4933589;29;20119;-89
2022/09/04 10:50:29;;;;;;;5.85;1.30;;;18.00;40.80;;;;;;4922929;29;20040;-87
2022/09/04 10:53:26;;;;;;;4.45;1.17;;;18.10;41.10;;;;;;4936024;29;20401;-84
2022/09/04 10:56:21;;;;;;;1.35;0.93;;;18.20;40.20;;;;;;4972369;28;20042;-83
2022/09/04 10:58:56;;;;;;;1.70;1.00;;;18.00;40.40;;;;;;4996795;28;20590;-87
2022/09/04 11:01:42;;;;;;;8.85;6.43;;;;;;;;;;5005444;28;20033;-91
2022/09/04 11:04:12;;;;;;;3.17;1.30;;;;;;;;;;5030214;28;20092;-90
2022/09/04 11:06:57;;;;;;;3.28;1.10;;;;;;;;;;5075257;28;20021;-86
2022/09/04 11:09:41;;;;;;;1.45;1.00;;;17.70;41.20;;;;;;5072799;28;20508;-87
2022/09/04 11:12:51;;;;;;;1.83;1.60;;;16.70;43.10;;;;;;5074794;28;20020;-87
2022/09/04 11:15:26;;;;;;;2.25;1.70;;;;;;;;;;5013620;28;20117;-86
2022/09/04 11:17:58;;;;;;;3.63;1.77;;;;;;;;;;5065385;28;20053;-86
2022/09/04 11:20:24;;;;;;;4.32;1.48;;;;;;;;;;5071259;28;20075;-86
2022/09/04 11:23:06;;;;;;;3.45;0.90;;;;;;;;;;5078648;28;20024;-87
2022/09/04 11:25:41;;;;;;;4.05;1.17;;;;;;;;;;5077010;28;20028;-86
2022/09/04 11:28:19;;;;;;;2.65;1.70;;;;;;;;;;5063402;28;20044;-87
2022/09/04 11:30:50;;;;;;;2.95;1.23;;;;;;;;;;5081332;28;20477;-86
2022/09/04 11:33:21;;;;;;;2.40;1.10;;;;;;;;;;5081621;28;20378;-87
2022/09/04 11:35:47;;;;;;;4.57;1.40;;;;;;;;;;5076261;28;20056;-87
2022/09/04 11:38:16;;;;;;;3.08;1.45;;;;;;;;;;5074946;28;20127;-91
2022/09/04 11:41:02;;;;;;;2.03;1.17;;;;;;;;;;5076632;28;20152;-88
2022/09/04 11:43:44;;;;;;;2.03;1.33;;;;;;;;;;5076464;28;20020;-88
2022/09/04 11:46:38;;;;;;;2.35;1.00;;;;;;;;;;5075219;28;20367;-86
2022/09/04 11:49:23;;;;;;;3.58;1.33;;;;;;;;;;5077117;28;20063;-88
2022/09/04 11:51:49;;;;;;;2.65;1.10;;;;;;;;;;5075081;28;20040;-86
2022/09/04 11:54:34;;;;;;;1.77;1.08;;;;;;;;;;5073584;28;20029;-87
2022/09/04 11:57:01;;;;;;;3.45;1.60;;;;;;;;;;5085431;28;20032;-86
2022/09/04 11:59:45;;;;;;;2.53;1.35;;;;;;;;;;5079502;28;20082;-86
2022/09/04 12:02:18;;;;;;;4.78;1.48;;;;;;;;;;5082171;28;20100;-87
2022/09/04 12:05:02;;;;;;;2.72;1.42;;;;;;;;;;5080440;28;20040;-86
2022/09/04 12:07:47;;;;;;;4.88;3.03;;;;;;;;;;5078622;28;20036;-88
2022/09/04 12:10:20;;;;;;;2.63;2.08;;;;;;;;;;5079364;28;20021;-86
2022/09/04 12:13:02;;;;;;;5.97;3.53;;;;;;;;;;5077872;28;20484;-86
2022/09/04 12:15:40;;;;;;;3.30;2.05;;;;;;;;;;5071324;28;20056;-86
2022/09/04 12:18:07;;;;;;;5.60;1.90;;;;;;;;;;5088511;28;20008;-84
2022/09/04 12:20:36;;;;;;;2.50;1.80;;;;;;;;;;5097013;28;20050;-84
2022/09/04 12:23:14;;;;;;;2.75;1.98;;;;;;;;;;5062839;28;20047;-85
2022/09/04 12:25:43;;;;;;;3.13;1.73;;;;;;;;;;5078283;28;20024;-87
2022/09/04 12:28:15;;;;;;;7.32;2.88;;;;;;;;;;5062924;28;20013;-84
2022/09/04 12:31:00;;;;;;;5.03;2.50;;;;;;;;;;5076594;28;20035;-87
2022/09/04 12:33:45;;;;;;;6.40;2.38;;;;;;;;;;5080332;28;20116;-85
2022/09/04 12:36:20;;;;;;;3.88;1.50;;;;;;;;;;5092339;28;20040;-87
2022/09/04 12:38:46;;;;;;;3.50;1.30;;;;;;;;;;5087203;28;20043;-84
2022/09/04 12:41:15;;;;;;;3.35;1.70;;;;;;;;;;5075274;28;20029;-87
2022/09/04 12:43:49;;;;;;;5.20;2.28;;;;;;;;;;5075193;28;20032;-85
2022/09/04 12:46:23;;;;;;;3.75;1.73;;;;;;;;;;5063010;28;20025;-86
2022/09/04 12:49:08;;;;;;;3.97;2.03;;;;;;;;;;5076610;28;20047;-89
2022/09/04 12:51:55;;;;;;;4.88;2.00;;;;;;;;;;5077846;28;20047;-85
2022/09/04 12:54:24;;;;;;;3.35;2.10;;;;;;;;;;5079478;28;20040;-85
2022/09/04 12:56:51;;;;;;;5.65;2.47;;;;;;;;;;5085415;28;20091;-87
2022/09/04 12:59:45;;;;;;;2.15;1.73;;;;;;;;;;5081493;28;20024;-89
2022/09/04 13:02:17;;;;;;;2.22;1.48;;;;;;;;;;5085232;28;20088;-90
2022/09/04 13:04:56;;;;;;;3.20;1.45;;;;;;;;;;5086280;28;20028;-89
2022/09/04 13:07:41;;;;;;;4.20;1.70;;;;;;;;;;5082398;28;20052;-92
2022/09/04 13:10:27;;;;;;;5.93;1.60;;;;;;;;;;5098119;28;20027;-91
2022/09/04 13:12:59;;;;;;;3.22;1.40;;;;;;;;;;5062401;28;20031;-90
2022/09/04 13:15:34;;;;;;;3.67;1.13;;;;;;;;;;5074102;28;20032;-92
2022/09/04 13:18:06;;;;;;;2.97;1.20;;;;;;;;;;5079011;28;20063;-83
2022/09/04 13:20:50;;;;;;;2.97;1.23;;;;;;;;;;5079443;28;20040;-86
2022/09/04 13:23:34;;;;;;;4.15;1.50;;;;;;;;;;5069629;28;20020;-86
2022/09/04 13:26:00;;;;;;;3.13;1.10;;;;;;;;;;5078153;28;20132;-86
2022/09/04 13:28:36;;;;;;;2.47;1.23;;;;;;;;;;5077074;28;20016;-83
2022/09/04 13:31:20;;;;;;;3.08;1.48;;;;;;;;;;5077391;28;20029;-84
2022/09/04 13:33:53;;;;;;;4.40;1.20;;;;;;;;;;5076963;28;20025;-82
2022/09/04 13:36:27;;;;;;;2.53;1.00;;;;;;;;;;5075993;28;20027;-81
2022/09/04 13:39:12;;;;;;;2.67;1.35;;;;;;;;;;5076939;28;20043;-86
2022/09/04 13:41:54;;;;;;;3.17;1.67;;;;;;;;;;5075625;28;20024;-86
2022/09/04 13:45:04;;;;;;;1.75;1.40;;;16.50;44.20;;;;;;5075936;28;20070;-83
2022/09/04 13:47:48;;;;;;;1.85;0.88;;;15.70;45.70;;;;;;5067912;28;20468;-85
2022/09/04 13:50:24;;;;;;;1.02;0.70;;;15.70;45.40;;;;;;5078336;28;20390;-85
2022/09/04 13:53:09;;;;;;;3.25;1.48;;;15.80;45.10;;;;;;5084665;28;20025;-85
2022/09/04 13:55:41;;;;;;;3.53;1.13;;;15.90;45.50;;;;;;5064094;28;20382;-86
2022/09/04 13:58:18;;;;;;;1.45;1.10;;;15.90;45.70;;;;;;5071849;28;20120;-86
2022/09/04 14:00:56;;;;;;;;;;;15.90;45.30;;;;;;5080828;28;20075;-84
2022/09/04 14:03:30;;;;;;;;;;;15.70;45.30;;;;;;5084936;28;19916;-84
2022/09/04 14:05:57;;;;;;;2.10;1.05;;;15.60;45.50;;;;;;5072011;28;19908;-85
2022/09/04 14:08:23;;;;;;;2.00;1.50;;;15.40;46.00;;;;;;5089021;28;20051;-83
2022/09/04 14:10:58;;;;;;;4.22;0.93;;;15.30;46.20;;;;;;5080787;28;20024;-83
2022/09/04 14:13:54;;;;;;;1.08;0.73;;;15.30;45.80;;;;;;5075656;28;20052;-84
2022/09/04 14:16:22;;;;;;;2.30;0.68;;;15.20;45.60;;;;;;5063602;28;20027;-82
2022/09/04 14:19:00;;;;;;;2.53;1.00;;;15.00;45.60;;;;;;5074818;28;20024;-82
2022/09/04 14:21:54;;;;;;;2.10;0.90;;;14.90;46.00;;;;;;5072782;28;20020;-84
2022/09/04 14:24:54;;;;;;;1.20;0.85;;;14.80;46.50;;;;;;5077795;28;20085;-83
2022/09/04 14:27:38;;;;;;;1.85;0.85;;;14.70;47.20;;;;;;5078438;28;20052;-82
2022/09/04 14:30:15;;;;;;;3.25;1.10;;;14.70;47.40;;;;;;5065675;28;20029;-82
2022/09/04 14:32:59;;;;;;;3.15;1.20;;;14.70;48.40;;;;;;5071334;28;20421;-81
2022/09/04 14:36:11;;;;;;;1.33;0.98;;;14.70;48.90;;;;;;5075182;28;20045;-82
2022/09/04 14:38:49;;;;;;;1.38;0.98;;;14.70;48.90;;;;;;5060443;28;20035;-81
2022/09/04 14:41:40;;;;;;;6.10;1.58;;;14.70;49.00;;;;;;5073930;28;20028;-81
2022/09/04 14:44:37;;;;;;;2.70;1.08;;;14.70;48.90;;;;;;5075186;28;20512;-82
2022/09/04 14:47:24;;;;;;;2.42;1.30;;;14.70;48.30;;;;;;5091524;28;20016;-83
2022/09/04 14:49:54;;;;;;;1.60;0.90;;;14.70;48.00;;;;;;5056498;28;20033;-83
2022/09/04 14:52:28;;;;;;;2.03;1.05;;;14.70;47.50;;;;;;5077343;28;20057;-84